sensor_id;sensor_type;location;lat;lon;timestamp;P1;durP1;ratioP1;P2;durP2;ratioP2
75818;SDS011;64453;51.944;9.796;2023-08-30T00:00:49;1.67;;;1.50;;
75818;SDS011;64453;51.944;9.796;2023-08-30T00:03:16;1.20;;;1.20;;
75818;SDS011;64453;51.944;9.796;2023-08-30T00:05:43;2.33;;;1.80;;
75818;SDS011;64453;51.944;9.796;2023-08-30T00:08:10;1.43;;;1.43;;
75818;SDS011;64453;51.944;9.796;2023-08-30T00:10:38;1.77;;;1.77;;
75818;SDS011;64453;51.944;9.796;2023-08-30T00:13:09;2.00;;;1.73;;
75818;SDS011;64453;51.944;9.796;2023-08-30T00:15:36;2.50;;;1.40;;
75818;SDS011;64453;51.944;9.796;2023-08-30T00:18:03;3.43;;;1.83;;
75818;SDS011;64453;51.944;9.796;2023-08-30T00:20:30;2.30;;;1.70;;
75818;SDS011;64453;51.944;9.796;2023-08-30T00:22:57;2.00;;;1.90;;
75818;SDS011;64453;51.944;9.796;2023-08-30T00:25:24;2.23;;;1.87;;
75818;SDS011;64453;51.944;9.796;2023-08-30T00:27:51;1.60;;;1.50;;
75818;SDS011;64453;51.944;9.796;2023-08-30T00:30:20;1.97;;;1.87;;
75818;SDS011;64453;51.944;9.796;2023-08-30T00:32:46;4.53;;;1.60;;
75818;SDS011;64453;51.944;9.796;2023-08-30T00:35:14;2.77;;;1.53;;
75818;SDS011;64453;51.944;9.796;2023-08-30T00:37:41;1.77;;;1.73;;
75818;SDS011;64453;51.944;9.796;2023-08-30T00:40:08;2.03;;;1.93;;
75818;SDS011;64453;51.944;9.796;2023-08-30T00:42:36;2.10;;;2.00;;
75818;SDS011;64453;51.944;9.796;2023-08-30T00:45:06;2.23;;;2.03;;
75818;SDS011;64453;51.944;9.796;2023-08-30T00:47:34;3.23;;;1.93;;
75818;SDS011;64453;51.944;9.796;2023-08-30T00:50:02;1.70;;;1.60;;
75818;SDS011;64453;51.944;9.796;2023-08-30T00:52:29;1.70;;;1.70;;
75818;SDS011;64453;51.944;9.796;2023-08-30T00:54:56;1.80;;;1.70;;
75818;SDS011;64453;51.944;9.796;2023-08-30T00:57:24;2.40;;;2.23;;
75818;SDS011;64453;51.944;9.796;2023-08-30T00:59:51;4.23;;;1.97;;
75818;SDS011;64453;51.944;9.796;2023-08-30T01:02:20;2.30;;;2.00;;
75818;SDS011;64453;51.944;9.796;2023-08-30T01:04:49;1.77;;;1.67;;
75818;SDS011;64453;51.944;9.796;2023-08-30T01:07:16;1.70;;;1.63;;
75818;SDS011;64453;51.944;9.796;2023-08-30T01:09:44;1.80;;;1.70;;
75818;SDS011;64453;51.944;9.796;2023-08-30T01:12:15;1.83;;;1.73;;
75818;SDS011;64453;51.944;9.796;2023-08-30T01:14:52;2.17;;;1.70;;
75818;SDS011;64453;51.944;9.796;2023-08-30T01:17:24;1.83;;;1.73;;
75818;SDS011;64453;51.944;9.796;2023-08-30T01:19:56;1.80;;;1.80;;
75818;SDS011;64453;51.944;9.796;2023-08-30T01:22:35;1.80;;;1.80;;
75818;SDS011;64453;51.944;9.796;2023-08-30T01:25:13;2.20;;;1.77;;
75818;SDS011;64453;51.944;9.796;2023-08-30T01:27:52;3.90;;;2.10;;
75818;SDS011;64453;51.944;9.796;2023-08-30T01:30:21;4.53;;;1.57;;
75818;SDS011;64453;51.944;9.796;2023-08-30T01:32:51;1.90;;;1.80;;
75818;SDS011;64453;51.944;9.796;2023-08-30T01:35:19;1.93;;;1.83;;
75818;SDS011;64453;51.944;9.796;2023-08-30T01:37:47;1.83;;;1.73;;
75818;SDS011;64453;51.944;9.796;2023-08-30T01:40:15;2.20;;;2.10;;
75818;SDS011;64453;51.944;9.796;2023-08-30T01:42:43;1.67;;;1.57;;
75818;SDS011;64453;51.944;9.796;2023-08-30T01:45:12;2.23;;;2.13;;
75818;SDS011;64453;51.944;9.796;2023-08-30T01:47:41;2.03;;;1.93;;
75818;SDS011;64453;51.944;9.796;2023-08-30T01:50:10;2.13;;;2.03;;
75818;SDS011;64453;51.944;9.796;2023-08-30T01:52:37;2.07;;;1.97;;
75818;SDS011;64453;51.944;9.796;2023-08-30T01:55:07;2.30;;;2.20;;
75818;SDS011;64453;51.944;9.796;2023-08-30T01:57:35;1.73;;;1.63;;
75818;SDS011;64453;51.944;9.796;2023-08-30T02:00:02;3.23;;;2.20;;
75818;SDS011;64453;51.944;9.796;2023-08-30T02:02:33;2.23;;;1.80;;
75818;SDS011;64453;51.944;9.796;2023-08-30T02:05:01;2.10;;;1.60;;
75818;SDS011;64453;51.944;9.796;2023-08-30T02:07:28;1.53;;;1.53;;
75818;SDS011;64453;51.944;9.796;2023-08-30T02:10:02;1.60;;;1.60;;
75818;SDS011;64453;51.944;9.796;2023-08-30T02:12:35;1.60;;;1.50;;
75818;SDS011;64453;51.944;9.796;2023-08-30T02:15:14;2.30;;;1.87;;
75818;SDS011;64453;51.944;9.796;2023-08-30T02:17:45;2.23;;;2.07;;
75818;SDS011;64453;51.944;9.796;2023-08-30T02:20:12;1.70;;;1.60;;
75818;SDS011;64453;51.944;9.796;2023-08-30T02:22:39;3.03;;;2.13;;
75818;SDS011;64453;51.944;9.796;2023-08-30T02:25:06;1.80;;;1.70;;
75818;SDS011;64453;51.944;9.796;2023-08-30T02:27:35;1.80;;;1.77;;
75818;SDS011;64453;51.944;9.796;2023-08-30T02:30:02;2.20;;;1.67;;
75818;SDS011;64453;51.944;9.796;2023-08-30T02:32:30;1.70;;;1.63;;
75818;SDS011;64453;51.944;9.796;2023-08-30T02:34:58;1.90;;;1.80;;
75818;SDS011;64453;51.944;9.796;2023-08-30T02:37:25;3.53;;;1.70;;
75818;SDS011;64453;51.944;9.796;2023-08-30T02:39:52;1.90;;;1.80;;
75818;SDS011;64453;51.944;9.796;2023-08-30T02:42:19;2.00;;;1.90;;
75818;SDS011;64453;51.944;9.796;2023-08-30T02:44:46;2.87;;;1.63;;
75818;SDS011;64453;51.944;9.796;2023-08-30T02:47:12;1.90;;;1.80;;
75818;SDS011;64453;51.944;9.796;2023-08-30T02:49:39;1.77;;;1.67;;
75818;SDS011;64453;51.944;9.796;2023-08-30T02:52:08;2.00;;;1.90;;
75818;SDS011;64453;51.944;9.796;2023-08-30T02:54:35;1.90;;;1.80;;
75818;SDS011;64453;51.944;9.796;2023-08-30T02:57:02;1.70;;;1.60;;
75818;SDS011;64453;51.944;9.796;2023-08-30T02:59:29;2.43;;;2.30;;
75818;SDS011;64453;51.944;9.796;2023-08-30T03:01:56;2.23;;;2.13;;
75818;SDS011;64453;51.944;9.796;2023-08-30T03:04:23;2.00;;;1.90;;
75818;SDS011;64453;51.944;9.796;2023-08-30T03:06:50;2.53;;;1.83;;
75818;SDS011;64453;51.944;9.796;2023-08-30T03:09:18;2.10;;;1.90;;
75818;SDS011;64453;51.944;9.796;2023-08-30T03:11:45;1.50;;;1.50;;
75818;SDS011;64453;51.944;9.796;2023-08-30T03:14:12;2.00;;;1.80;;
75818;SDS011;64453;51.944;9.796;2023-08-30T03:16:40;1.87;;;1.77;;
75818;SDS011;64453;51.944;9.796;2023-08-30T03:19:07;1.90;;;1.80;;
75818;SDS011;64453;51.944;9.796;2023-08-30T03:21:34;3.10;;;1.90;;
75818;SDS011;64453;51.944;9.796;2023-08-30T03:24:01;1.87;;;1.77;;
75818;SDS011;64453;51.944;9.796;2023-08-30T03:26:30;3.27;;;1.90;;
75818;SDS011;64453;51.944;9.796;2023-08-30T03:28:57;2.50;;;1.83;;
75818;SDS011;64453;51.944;9.796;2023-08-30T03:31:24;1.70;;;1.60;;
75818;SDS011;64453;51.944;9.796;2023-08-30T03:33:50;2.10;;;1.67;;
75818;SDS011;64453;51.944;9.796;2023-08-30T03:36:18;1.80;;;1.70;;
75818;SDS011;64453;51.944;9.796;2023-08-30T03:38:45;6.03;;;2.00;;
75818;SDS011;64453;51.944;9.796;2023-08-30T03:41:12;2.00;;;1.50;;
75818;SDS011;64453;51.944;9.796;2023-08-30T03:43:40;2.33;;;2.17;;
75818;SDS011;64453;51.944;9.796;2023-08-30T03:46:07;2.13;;;1.93;;
75818;SDS011;64453;51.944;9.796;2023-08-30T03:48:36;1.50;;;1.50;;
75818;SDS011;64453;51.944;9.796;2023-08-30T03:51:04;1.90;;;1.73;;
75818;SDS011;64453;51.944;9.796;2023-08-30T03:53:31;1.80;;;1.70;;
75818;SDS011;64453;51.944;9.796;2023-08-30T03:55:58;2.00;;;1.53;;
75818;SDS011;64453;51.944;9.796;2023-08-30T03:58:25;1.80;;;1.70;;
75818;SDS011;64453;51.944;9.796;2023-08-30T04:00:53;1.63;;;1.63;;
75818;SDS011;64453;51.944;9.796;2023-08-30T04:03:20;1.70;;;1.63;;
75818;SDS011;64453;51.944;9.796;2023-08-30T04:05:47;2.17;;;2.07;;
75818;SDS011;64453;51.944;9.796;2023-08-30T04:08:14;1.70;;;1.60;;
75818;SDS011;64453;51.944;9.796;2023-08-30T04:10:41;1.73;;;1.63;;
75818;SDS011;64453;51.944;9.796;2023-08-30T04:13:12;1.70;;;1.60;;
75818;SDS011;64453;51.944;9.796;2023-08-30T04:15:40;2.03;;;1.93;;
75818;SDS011;64453;51.944;9.796;2023-08-30T04:18:08;1.60;;;1.60;;
75818;SDS011;64453;51.944;9.796;2023-08-30T04:20:35;1.90;;;1.80;;
75818;SDS011;64453;51.944;9.796;2023-08-30T04:23:03;2.27;;;2.13;;
75818;SDS011;64453;51.944;9.796;2023-08-30T04:25:30;2.70;;;1.80;;
75818;SDS011;64453;51.944;9.796;2023-08-30T04:27:57;1.90;;;1.80;;
75818;SDS011;64453;51.944;9.796;2023-08-30T04:30:24;3.53;;;1.70;;
75818;SDS011;64453;51.944;9.796;2023-08-30T04:32:51;1.97;;;1.80;;
75818;SDS011;64453;51.944;9.796;2023-08-30T04:35:19;1.90;;;1.80;;
75818;SDS011;64453;51.944;9.796;2023-08-30T04:37:46;5.97;;;1.93;;
75818;SDS011;64453;51.944;9.796;2023-08-30T04:40:14;2.30;;;2.10;;
75818;SDS011;64453;51.944;9.796;2023-08-30T04:42:41;2.70;;;1.97;;
75818;SDS011;64453;51.944;9.796;2023-08-30T04:45:08;5.00;;;1.80;;
75818;SDS011;64453;51.944;9.796;2023-08-30T04:47:36;2.23;;;2.13;;
75818;SDS011;64453;51.944;9.796;2023-08-30T04:50:03;2.70;;;2.50;;
75818;SDS011;64453;51.944;9.796;2023-08-30T04:52:32;6.20;;;2.50;;
75818;SDS011;64453;51.944;9.796;2023-08-30T04:54:59;2.13;;;1.93;;
75818;SDS011;64453;51.944;9.796;2023-08-30T04:57:26;2.17;;;2.07;;
75818;SDS011;64453;51.944;9.796;2023-08-30T04:59:53;2.03;;;1.97;;
75818;SDS011;64453;51.944;9.796;2023-08-30T05:02:20;2.03;;;1.83;;
75818;SDS011;64453;51.944;9.796;2023-08-30T05:04:46;4.97;;;2.40;;
75818;SDS011;64453;51.944;9.796;2023-08-30T05:07:13;2.70;;;2.50;;
75818;SDS011;64453;51.944;9.796;2023-08-30T05:09:42;2.07;;;1.80;;
75818;SDS011;64453;51.944;9.796;2023-08-30T05:12:08;2.80;;;2.53;;
75818;SDS011;64453;51.944;9.796;2023-08-30T05:14:35;2.87;;;2.67;;
75818;SDS011;64453;51.944;9.796;2023-08-30T05:17:02;5.40;;;2.37;;
75818;SDS011;64453;51.944;9.796;2023-08-30T05:19:30;4.43;;;2.40;;
75818;SDS011;64453;51.944;9.796;2023-08-30T05:21:56;4.07;;;2.90;;
75818;SDS011;64453;51.944;9.796;2023-08-30T05:24:23;2.50;;;2.30;;
75818;SDS011;64453;51.944;9.796;2023-08-30T05:26:52;3.30;;;3.10;;
75818;SDS011;64453;51.944;9.796;2023-08-30T05:29:19;3.33;;;2.43;;
75818;SDS011;64453;51.944;9.796;2023-08-30T05:31:46;3.00;;;2.80;;
75818;SDS011;64453;51.944;9.796;2023-08-30T05:34:13;2.70;;;2.60;;
75818;SDS011;64453;51.944;9.796;2023-08-30T05:36:40;3.97;;;3.00;;
75818;SDS011;64453;51.944;9.796;2023-08-30T05:39:07;3.00;;;2.83;;
75818;SDS011;64453;51.944;9.796;2023-08-30T05:41:34;2.80;;;2.70;;
75818;SDS011;64453;51.944;9.796;2023-08-30T05:44:02;3.30;;;3.10;;
75818;SDS011;64453;51.944;9.796;2023-08-30T05:46:31;3.20;;;3.00;;
75818;SDS011;64453;51.944;9.796;2023-08-30T05:48:57;3.40;;;3.10;;
75818;SDS011;64453;51.944;9.796;2023-08-30T05:51:25;4.17;;;3.80;;
75818;SDS011;64453;51.944;9.796;2023-08-30T05:53:52;4.70;;;4.30;;
75818;SDS011;64453;51.944;9.796;2023-08-30T05:56:19;3.70;;;3.50;;
75818;SDS011;64453;51.944;9.796;2023-08-30T05:58:46;3.80;;;3.50;;
75818;SDS011;64453;51.944;9.796;2023-08-30T06:01:17;4.10;;;3.87;;
75818;SDS011;64453;51.944;9.796;2023-08-30T06:03:44;4.17;;;3.87;;
75818;SDS011;64453;51.944;9.796;2023-08-30T06:06:12;5.20;;;4.80;;
75818;SDS011;64453;51.944;9.796;2023-08-30T06:08:39;4.80;;;4.40;;
75818;SDS011;64453;51.944;9.796;2023-08-30T06:11:06;6.00;;;5.50;;
75818;SDS011;64453;51.944;9.796;2023-08-30T06:13:33;6.30;;;5.67;;
75818;SDS011;64453;51.944;9.796;2023-08-30T06:16:00;5.23;;;4.83;;
75818;SDS011;64453;51.944;9.796;2023-08-30T06:20:58;6.07;;;4.93;;
75818;SDS011;64453;51.944;9.796;2023-08-30T06:23:25;6.10;;;5.60;;
75818;SDS011;64453;51.944;9.796;2023-08-30T06:25:54;5.33;;;4.83;;
75818;SDS011;64453;51.944;9.796;2023-08-30T06:28:22;6.50;;;5.90;;
75818;SDS011;64453;51.944;9.796;2023-08-30T06:30:49;6.97;;;5.87;;
75818;SDS011;64453;51.944;9.796;2023-08-30T06:33:16;6.57;;;6.13;;
75818;SDS011;64453;51.944;9.796;2023-08-30T06:35:47;6.57;;;5.97;;
75818;SDS011;64453;51.944;9.796;2023-08-30T06:38:15;5.87;;;5.40;;
75818;SDS011;64453;51.944;9.796;2023-08-30T06:40:43;5.67;;;5.27;;
75818;SDS011;64453;51.944;9.796;2023-08-30T06:43:11;7.13;;;6.53;;
75818;SDS011;64453;51.944;9.796;2023-08-30T06:45:38;6.23;;;5.63;;
75818;SDS011;64453;51.944;9.796;2023-08-30T06:48:05;6.13;;;5.60;;
75818;SDS011;64453;51.944;9.796;2023-08-30T06:50:33;6.20;;;5.60;;
75818;SDS011;64453;51.944;9.796;2023-08-30T06:53:02;6.33;;;5.83;;
75818;SDS011;64453;51.944;9.796;2023-08-30T06:55:29;5.97;;;5.47;;
75818;SDS011;64453;51.944;9.796;2023-08-30T06:57:56;6.00;;;5.60;;
75818;SDS011;64453;51.944;9.796;2023-08-30T07:00:23;7.10;;;6.50;;
75818;SDS011;64453;51.944;9.796;2023-08-30T07:02:50;7.70;;;5.63;;
75818;SDS011;64453;51.944;9.796;2023-08-30T07:05:18;7.00;;;6.30;;
75818;SDS011;64453;51.944;9.796;2023-08-30T07:07:45;7.30;;;6.50;;
75818;SDS011;64453;51.944;9.796;2023-08-30T07:10:13;6.90;;;6.23;;
75818;SDS011;64453;51.944;9.796;2023-08-30T07:12:40;6.60;;;6.10;;
75818;SDS011;64453;51.944;9.796;2023-08-30T07:15:07;7.57;;;6.80;;
75818;SDS011;64453;51.944;9.796;2023-08-30T07:17:35;6.60;;;6.10;;
75818;SDS011;64453;51.944;9.796;2023-08-30T07:20:02;7.20;;;6.60;;
75818;SDS011;64453;51.944;9.796;2023-08-30T07:22:33;6.43;;;5.93;;
75818;SDS011;64453;51.944;9.796;2023-08-30T07:25:00;8.43;;;7.70;;
75818;SDS011;64453;51.944;9.796;2023-08-30T07:27:29;8.03;;;7.27;;
75818;SDS011;64453;51.944;9.796;2023-08-30T07:29:56;9.20;;;8.37;;
75818;SDS011;64453;51.944;9.796;2023-08-30T07:32:23;7.40;;;6.83;;
75818;SDS011;64453;51.944;9.796;2023-08-30T07:34:50;7.60;;;6.90;;
75818;SDS011;64453;51.944;9.796;2023-08-30T07:37:17;7.30;;;6.63;;
75818;SDS011;64453;51.944;9.796;2023-08-30T07:39:46;7.67;;;7.00;;
75818;SDS011;64453;51.944;9.796;2023-08-30T07:42:13;7.67;;;7.07;;
75818;SDS011;64453;51.944;9.796;2023-08-30T07:44:42;7.53;;;6.83;;
75818;SDS011;64453;51.944;9.796;2023-08-30T07:47:08;7.67;;;7.03;;
75818;SDS011;64453;51.944;9.796;2023-08-30T07:49:35;7.50;;;6.90;;
75818;SDS011;64453;51.944;9.796;2023-08-30T07:52:02;7.20;;;6.60;;
75818;SDS011;64453;51.944;9.796;2023-08-30T07:54:30;7.23;;;6.63;;
75818;SDS011;64453;51.944;9.796;2023-08-30T07:56:58;7.50;;;6.87;;
75818;SDS011;64453;51.944;9.796;2023-08-30T07:59:24;7.90;;;7.27;;
75818;SDS011;64453;51.944;9.796;2023-08-30T08:01:53;7.10;;;6.60;;
75818;SDS011;64453;51.944;9.796;2023-08-30T08:04:20;7.17;;;6.63;;
75818;SDS011;64453;51.944;9.796;2023-08-30T08:06:47;7.90;;;6.77;;
75818;SDS011;64453;51.944;9.796;2023-08-30T08:09:14;6.67;;;6.17;;
75818;SDS011;64453;51.944;9.796;2023-08-30T08:11:42;8.73;;;7.70;;
75818;SDS011;64453;51.944;9.796;2023-08-30T08:14:09;7.70;;;7.00;;
75818;SDS011;64453;51.944;9.796;2023-08-30T08:16:36;7.30;;;6.70;;
75818;SDS011;64453;51.944;9.796;2023-08-30T08:19:05;6.60;;;6.10;;
75818;SDS011;64453;51.944;9.796;2023-08-30T08:21:32;6.60;;;6.10;;
75818;SDS011;64453;51.944;9.796;2023-08-30T08:23:59;7.37;;;6.77;;
75818;SDS011;64453;51.944;9.796;2023-08-30T08:26:26;7.30;;;6.20;;
75818;SDS011;64453;51.944;9.796;2023-08-30T08:28:53;6.90;;;6.40;;
75818;SDS011;64453;51.944;9.796;2023-08-30T08:31:21;7.03;;;6.43;;
75818;SDS011;64453;51.944;9.796;2023-08-30T08:33:50;6.73;;;6.13;;
75818;SDS011;64453;51.944;9.796;2023-08-30T08:36:33;6.10;;;5.50;;
75818;SDS011;64453;51.944;9.796;2023-08-30T08:39:00;6.80;;;6.30;;
75818;SDS011;64453;51.944;9.796;2023-08-30T08:41:31;6.27;;;5.40;;
75818;SDS011;64453;51.944;9.796;2023-08-30T08:44:05;6.20;;;5.70;;
75818;SDS011;64453;51.944;9.796;2023-08-30T08:46:33;5.27;;;4.87;;
75818;SDS011;64453;51.944;9.796;2023-08-30T08:49:01;5.13;;;4.73;;
75818;SDS011;64453;51.944;9.796;2023-08-30T08:51:36;5.07;;;4.57;;
75818;SDS011;64453;51.944;9.796;2023-08-30T08:54:04;5.77;;;5.17;;
75818;SDS011;64453;51.944;9.796;2023-08-30T08:56:34;6.40;;;5.20;;
75818;SDS011;64453;51.944;9.796;2023-08-30T08:59:01;12.33;;;5.20;;
75818;SDS011;64453;51.944;9.796;2023-08-30T09:01:29;5.73;;;5.17;;
75818;SDS011;64453;51.944;9.796;2023-08-30T09:03:58;4.83;;;4.53;;
75818;SDS011;64453;51.944;9.796;2023-08-30T09:06:27;5.30;;;4.80;;
75818;SDS011;64453;51.944;9.796;2023-08-30T09:08:55;6.47;;;4.90;;
75818;SDS011;64453;51.944;9.796;2023-08-30T09:11:22;4.70;;;4.30;;
75818;SDS011;64453;51.944;9.796;2023-08-30T09:13:48;4.80;;;4.03;;
75818;SDS011;64453;51.944;9.796;2023-08-30T09:16:15;4.67;;;4.27;;
75818;SDS011;64453;51.944;9.796;2023-08-30T09:18:42;4.60;;;4.20;;
75818;SDS011;64453;51.944;9.796;2023-08-30T09:21:10;4.67;;;4.17;;
75818;SDS011;64453;51.944;9.796;2023-08-30T09:23:39;4.20;;;3.90;;
75818;SDS011;64453;51.944;9.796;2023-08-30T09:26:06;4.03;;;3.73;;
75818;SDS011;64453;51.944;9.796;2023-08-30T09:28:41;4.57;;;4.27;;
75818;SDS011;64453;51.944;9.796;2023-08-30T09:31:16;6.23;;;3.70;;
75818;SDS011;64453;51.944;9.796;2023-08-30T09:33:44;6.83;;;4.33;;
75818;SDS011;64453;51.944;9.796;2023-08-30T09:36:13;4.77;;;3.87;;
75818;SDS011;64453;51.944;9.796;2023-08-30T09:38:47;4.90;;;4.10;;
75818;SDS011;64453;51.944;9.796;2023-08-30T09:41:15;5.00;;;4.60;;
75818;SDS011;64453;51.944;9.796;2023-08-30T09:43:43;5.33;;;4.80;;
75818;SDS011;64453;51.944;9.796;2023-08-30T09:46:11;7.27;;;6.57;;
75818;SDS011;64453;51.944;9.796;2023-08-30T09:48:38;5.13;;;4.73;;
75818;SDS011;64453;51.944;9.796;2023-08-30T09:51:07;5.20;;;4.50;;
75818;SDS011;64453;51.944;9.796;2023-08-30T09:53:37;7.90;;;6.00;;
75818;SDS011;64453;51.944;9.796;2023-08-30T09:56:11;5.40;;;4.90;;
75818;SDS011;64453;51.944;9.796;2023-08-30T09:58:40;5.37;;;4.97;;
75818;SDS011;64453;51.944;9.796;2023-08-30T10:01:08;4.63;;;4.23;;
75818;SDS011;64453;51.944;9.796;2023-08-30T10:03:36;6.53;;;4.70;;
75818;SDS011;64453;51.944;9.796;2023-08-30T10:06:04;4.53;;;4.13;;
75818;SDS011;64453;51.944;9.796;2023-08-30T10:08:32;4.20;;;3.90;;
75818;SDS011;64453;51.944;9.796;2023-08-30T10:11:03;3.93;;;3.63;;
75818;SDS011;64453;51.944;9.796;2023-08-30T10:13:30;3.60;;;3.30;;
75818;SDS011;64453;51.944;9.796;2023-08-30T10:16:00;4.60;;;4.20;;
75818;SDS011;64453;51.944;9.796;2023-08-30T10:18:31;3.87;;;3.50;;
75818;SDS011;64453;51.944;9.796;2023-08-30T10:21:00;4.37;;;3.97;;
75818;SDS011;64453;51.944;9.796;2023-08-30T10:23:33;3.90;;;3.70;;
75818;SDS011;64453;51.944;9.796;2023-08-30T10:26:04;3.77;;;3.53;;
75818;SDS011;64453;51.944;9.796;2023-08-30T10:28:33;4.43;;;4.13;;
75818;SDS011;64453;51.944;9.796;2023-08-30T10:31:01;4.93;;;4.53;;
75818;SDS011;64453;51.944;9.796;2023-08-30T10:33:29;4.93;;;4.53;;
75818;SDS011;64453;51.944;9.796;2023-08-30T10:36:02;4.63;;;4.20;;
75818;SDS011;64453;51.944;9.796;2023-08-30T10:38:32;4.93;;;4.37;;
75818;SDS011;64453;51.944;9.796;2023-08-30T10:41:08;4.37;;;4.00;;
75818;SDS011;64453;51.944;9.796;2023-08-30T10:43:35;4.10;;;3.80;;
75818;SDS011;64453;51.944;9.796;2023-08-30T10:46:03;5.37;;;4.33;;
75818;SDS011;64453;51.944;9.796;2023-08-30T10:48:36;4.47;;;4.10;;
75818;SDS011;64453;51.944;9.796;2023-08-30T10:51:05;4.40;;;4.00;;
75818;SDS011;64453;51.944;9.796;2023-08-30T10:53:54;5.80;;;5.00;;
75818;SDS011;64453;51.944;9.796;2023-08-30T10:56:28;5.43;;;4.07;;
75818;SDS011;64453;51.944;9.796;2023-08-30T10:58:56;4.80;;;4.50;;
75818;SDS011;64453;51.944;9.796;2023-08-30T11:01:23;9.20;;;7.00;;
75818;SDS011;64453;51.944;9.796;2023-08-30T11:03:50;11.17;;;8.10;;
75818;SDS011;64453;51.944;9.796;2023-08-30T11:06:18;7.70;;;7.00;;
75818;SDS011;64453;51.944;9.796;2023-08-30T11:08:47;6.73;;;6.13;;
75818;SDS011;64453;51.944;9.796;2023-08-30T11:11:14;5.93;;;5.33;;
75818;SDS011;64453;51.944;9.796;2023-08-30T11:13:43;4.77;;;3.90;;
75818;SDS011;64453;51.944;9.796;2023-08-30T11:16:10;8.87;;;6.30;;
75818;SDS011;64453;51.944;9.796;2023-08-30T11:18:37;6.50;;;5.90;;
75818;SDS011;64453;51.944;9.796;2023-08-30T11:21:06;6.13;;;5.53;;
75818;SDS011;64453;51.944;9.796;2023-08-30T11:23:34;5.93;;;5.13;;
75818;SDS011;64453;51.944;9.796;2023-08-30T11:26:01;11.90;;;8.00;;
75818;SDS011;64453;51.944;9.796;2023-08-30T11:28:29;9.30;;;6.67;;
75818;SDS011;64453;51.944;9.796;2023-08-30T11:30:58;10.87;;;9.80;;
75818;SDS011;64453;51.944;9.796;2023-08-30T11:33:25;8.10;;;7.10;;
75818;SDS011;64453;51.944;9.796;2023-08-30T11:35:52;7.83;;;7.13;;
75818;SDS011;64453;51.944;9.796;2023-08-30T11:38:19;7.60;;;6.97;;
75818;SDS011;64453;51.944;9.796;2023-08-30T11:40:48;6.53;;;5.93;;
75818;SDS011;64453;51.944;9.796;2023-08-30T11:43:16;9.13;;;7.97;;
75818;SDS011;64453;51.944;9.796;2023-08-30T11:45:44;10.13;;;8.80;;
75818;SDS011;64453;51.944;9.796;2023-08-30T11:48:12;9.30;;;8.40;;
75818;SDS011;64453;51.944;9.796;2023-08-30T11:50:40;7.80;;;7.00;;
75818;SDS011;64453;51.944;9.796;2023-08-30T11:53:08;7.07;;;6.37;;
75818;SDS011;64453;51.944;9.796;2023-08-30T11:55:36;5.97;;;5.47;;
75818;SDS011;64453;51.944;9.796;2023-08-30T11:58:04;6.13;;;5.60;;
75818;SDS011;64453;51.944;9.796;2023-08-30T12:00:32;6.30;;;5.70;;
75818;SDS011;64453;51.944;9.796;2023-08-30T12:03:00;8.20;;;7.40;;
75818;SDS011;64453;51.944;9.796;2023-08-30T12:05:29;6.97;;;6.37;;
75818;SDS011;64453;51.944;9.796;2023-08-30T12:07:59;6.20;;;5.70;;
75818;SDS011;64453;51.944;9.796;2023-08-30T12:10:28;6.40;;;5.90;;
75818;SDS011;64453;51.944;9.796;2023-08-30T12:12:55;6.33;;;5.63;;
75818;SDS011;64453;51.944;9.796;2023-08-30T12:15:22;6.10;;;5.57;;
75818;SDS011;64453;51.944;9.796;2023-08-30T12:17:50;6.53;;;5.93;;
75818;SDS011;64453;51.944;9.796;2023-08-30T12:20:18;5.70;;;5.20;;
75818;SDS011;64453;51.944;9.796;2023-08-30T12:22:50;6.30;;;5.43;;
75818;SDS011;64453;51.944;9.796;2023-08-30T12:25:22;5.80;;;5.40;;
75818;SDS011;64453;51.944;9.796;2023-08-30T12:27:50;5.93;;;5.43;;
75818;SDS011;64453;51.944;9.796;2023-08-30T12:30:18;7.93;;;5.37;;
75818;SDS011;64453;51.944;9.796;2023-08-30T12:32:45;6.47;;;5.53;;
75818;SDS011;64453;51.944;9.796;2023-08-30T12:35:13;5.80;;;5.20;;
75818;SDS011;64453;51.944;9.796;2023-08-30T12:37:40;5.10;;;4.77;;
75818;SDS011;64453;51.944;9.796;2023-08-30T12:40:10;4.80;;;4.40;;
75818;SDS011;64453;51.944;9.796;2023-08-30T12:42:37;4.43;;;4.13;;
75818;SDS011;64453;51.944;9.796;2023-08-30T12:45:05;4.47;;;4.17;;
75818;SDS011;64453;51.944;9.796;2023-08-30T12:47:33;4.60;;;4.20;;
75818;SDS011;64453;51.944;9.796;2023-08-30T12:50:00;4.70;;;4.40;;
75818;SDS011;64453;51.944;9.796;2023-08-30T12:52:27;4.73;;;4.00;;
75818;SDS011;64453;51.944;9.796;2023-08-30T12:54:54;5.83;;;4.43;;
75818;SDS011;64453;51.944;9.796;2023-08-30T12:57:22;4.80;;;4.40;;
75818;SDS011;64453;51.944;9.796;2023-08-30T12:59:49;4.83;;;4.43;;
75818;SDS011;64453;51.944;9.796;2023-08-30T13:02:16;4.57;;;4.27;;
75818;SDS011;64453;51.944;9.796;2023-08-30T13:04:43;4.50;;;4.20;;
75818;SDS011;64453;51.944;9.796;2023-08-30T13:07:10;5.50;;;5.03;;
75818;SDS011;64453;51.944;9.796;2023-08-30T13:09:37;4.90;;;4.20;;
75818;SDS011;64453;51.944;9.796;2023-08-30T13:12:04;4.67;;;4.30;;
75818;SDS011;64453;51.944;9.796;2023-08-30T13:14:33;4.30;;;4.00;;
75818;SDS011;64453;51.944;9.796;2023-08-30T13:17:01;5.07;;;4.57;;
75818;SDS011;64453;51.944;9.796;2023-08-30T13:19:28;4.07;;;3.77;;
75818;SDS011;64453;51.944;9.796;2023-08-30T13:21:54;5.93;;;4.70;;
75818;SDS011;64453;51.944;9.796;2023-08-30T13:24:21;5.50;;;5.10;;
75818;SDS011;64453;51.944;9.796;2023-08-30T13:26:48;4.90;;;4.50;;
75818;SDS011;64453;51.944;9.796;2023-08-30T13:29:16;5.80;;;5.40;;
75818;SDS011;64453;51.944;9.796;2023-08-30T13:31:44;4.03;;;3.73;;
75818;SDS011;64453;51.944;9.796;2023-08-30T13:34:11;5.20;;;4.70;;
75818;SDS011;64453;51.944;9.796;2023-08-30T13:36:38;4.00;;;3.70;;
75818;SDS011;64453;51.944;9.796;2023-08-30T13:39:05;4.30;;;4.00;;
75818;SDS011;64453;51.944;9.796;2023-08-30T13:41:32;4.83;;;4.43;;
75818;SDS011;64453;51.944;9.796;2023-08-30T13:43:59;5.50;;;3.97;;
75818;SDS011;64453;51.944;9.796;2023-08-30T13:46:26;3.73;;;3.53;;
75818;SDS011;64453;51.944;9.796;2023-08-30T13:48:54;4.40;;;4.10;;
75818;SDS011;64453;51.944;9.796;2023-08-30T13:51:21;4.30;;;3.73;;
75818;SDS011;64453;51.944;9.796;2023-08-30T13:53:48;4.50;;;3.63;;
75818;SDS011;64453;51.944;9.796;2023-08-30T13:56:16;3.70;;;3.50;;
75818;SDS011;64453;51.944;9.796;2023-08-30T13:58:43;3.50;;;3.20;;
75818;SDS011;64453;51.944;9.796;2023-08-30T14:01:11;3.10;;;2.90;;
75818;SDS011;64453;51.944;9.796;2023-08-30T14:03:38;3.53;;;3.20;;
75818;SDS011;64453;51.944;9.796;2023-08-30T14:06:06;2.77;;;2.57;;
75818;SDS011;64453;51.944;9.796;2023-08-30T14:08:33;3.00;;;2.80;;
75818;SDS011;64453;51.944;9.796;2023-08-30T14:11:00;3.03;;;2.80;;
75818;SDS011;64453;51.944;9.796;2023-08-30T14:13:28;6.70;;;3.03;;
75818;SDS011;64453;51.944;9.796;2023-08-30T14:15:58;2.80;;;2.60;;
75818;SDS011;64453;51.944;9.796;2023-08-30T14:18:25;5.60;;;2.77;;
75818;SDS011;64453;51.944;9.796;2023-08-30T14:20:54;3.07;;;2.87;;
75818;SDS011;64453;51.944;9.796;2023-08-30T14:23:24;3.33;;;2.93;;
75818;SDS011;64453;51.944;9.796;2023-08-30T14:25:55;3.03;;;2.83;;
75818;SDS011;64453;51.944;9.796;2023-08-30T14:28:23;2.70;;;2.50;;
75818;SDS011;64453;51.944;9.796;2023-08-30T14:30:50;3.23;;;2.93;;
75818;SDS011;64453;51.944;9.796;2023-08-30T14:33:17;2.80;;;2.70;;
75818;SDS011;64453;51.944;9.796;2023-08-30T14:35:44;3.27;;;3.07;;
75818;SDS011;64453;51.944;9.796;2023-08-30T14:38:11;2.77;;;2.57;;
75818;SDS011;64453;51.944;9.796;2023-08-30T14:40:39;2.43;;;2.30;;
75818;SDS011;64453;51.944;9.796;2023-08-30T14:43:06;2.57;;;2.37;;
75818;SDS011;64453;51.944;9.796;2023-08-30T14:45:34;2.70;;;2.50;;
75818;SDS011;64453;51.944;9.796;2023-08-30T14:48:01;2.63;;;2.50;;
75818;SDS011;64453;51.944;9.796;2023-08-30T14:50:28;2.77;;;2.57;;
75818;SDS011;64453;51.944;9.796;2023-08-30T14:52:56;2.83;;;2.63;;
75818;SDS011;64453;51.944;9.796;2023-08-30T14:55:23;2.53;;;2.43;;